Tropical Cyclones
[Index]
Main Index Home Page Stock Weather Photos Extreme Storms Discussion Storm News and Storm Chasing Reports Tropical Cyclones / Hurricanes / Typhoons Weather Data and Links Wild Fires / Bushfires Weather Observation Techniques Weather Picture Catalogue Tornado Pictures and Reports Stock Video Footage and DVDs for sale
Season 1989-1990 Tropical Cyclone BAVOMAVO Track Map
Season 1989-1990 Summaries: [BoM-AU] [JTWC-AU] [JTWC-SIO] [JTWC-SPAC] [JTWC-SH]
<<- Previous TC | JTWC 1989-1990 Season | Next TC ->>

click for intensity scale information  Lat/long Grid: Show Hide

 Date Labels: Show Hide

Joint Typhoon Warning Centre Cyclone Data

Name: BAVOMAVO

29 Dec 1989 18:00 UTC to 08 Jan 1990 12:00 UTC

    date/time    lat    long     hPa   cat  kts
1989-12-29 18    5.0    95.0                  20          
1989-12-30 00    5.5    94.4                  20          
1989-12-30 06    6.0    93.9                  20          
1989-12-30 12    6.5    93.3                  20          
1989-12-30 18    7.0    92.6                  20          
1989-12-31 00    7.5    92.0                  20          
1989-12-31 06    7.9    91.4                  20          
1989-12-31 12    8.1    91.0                  20          
1989-12-31 18    8.3    90.6                  20          
1990-01-01 00    8.5    90.3                  20          
1990-01-01 06    8.7    90.0                  20          
1990-01-01 12    8.8    89.7                  20          
1990-01-01 18    9.0    89.5                  25          
1990-01-02 00    9.2    89.3                  25          
1990-01-02 06    9.5    89.1                  25          
1990-01-02 12   10.0    89.0                  30          
1990-01-02 18   10.7    88.9                  35          
1990-01-03 00   11.6    88.5            1     40          
1990-01-03 06   12.4    88.0            1     40          
1990-01-03 12   13.1    87.3            1     45          
1990-01-03 18   13.7    86.5            1     50          
1990-01-04 00   14.2    85.5            1     50          
1990-01-04 06   14.7    85.0            2     55          
1990-01-04 12   15.3    84.9            2     65          
1990-01-04 18   16.0    84.7            2     70          
1990-01-05 00   16.6    84.7            3     75          
1990-01-05 06   17.4    84.6            3     80          
1990-01-05 12   18.2    84.4            3     85          
1990-01-05 18   19.2    84.3            3     85          
1990-01-06 00   20.4    84.2            3     85          
1990-01-06 06   21.9    84.2            3     80          
1990-01-06 12   23.6    84.4            3     80          
1990-01-06 18   25.1    84.8            3     75          
1990-01-07 00   26.2    85.1            2     60          
1990-01-07 06   27.0    85.8            1     50          
1990-01-07 12   27.7    86.6            1     40          
1990-01-07 18   28.5    87.3                  35          
1990-01-08 00   29.5    87.6                  35          
1990-01-08 06   30.5    88.0                  35          
1990-01-08 12   31.5    88.4                  35          
Winds are 1-min average.

Tropical cyclone tracks developed by Michael Bath using data from the Joint Typhoon Warning Centre Best Tracks and Google Maps.


[Australian Severe Weather index] [Copyright Notice] [Email Contacts] [Search This Site] [Privacy Policy]
Document: tropical_cyclone_bavomavo.htm Updated: 18 September 2016